Skip to content.

Central North Island

  

Kirikau - KRK

Logged in to unit HSN11713 as: Guest
(Last data received Sat 24 Feb 2018 11:01:01 - 81 seconds ago)

Weather FWI Graphs Hourly FWI Daily FWI Download FWI Data

Hourly FWI Logs | Period From 11:02 23/02/2018 to 11:02 24/02/2018

Change the DoC% for the 24hr period starting 12:00pm 23/2/2018 to

If the date above is the current day, then all future logs will inherit this value until such time as it is changed again. If you wish to change historic values you can do so by going back to the day you want to alter (navigate via the graphs) and change the DoC% there (however this will only affect that day).

WindRainHourly FWIsDaily FWIsForestGrassScrub
DateTime (NZST)Temp (C)RH (%)Dir (deg)Speed (km/h)Hourly (mm)Daily (mm)FFMCISIHFWIFFMCDMCDCISIBUIFWIDSRROS (m/h)FFI (kW/m)FFDCDoC (%)ROS (m/h)GFI (kW/m)GFDCROS (m/h)SFI (kW/m)SFDC
24/02/2018 1000 19.1 80.0 48 2.7 0.0 65.4 0.6 0.3 1 0 L 0 0 0 L 71 714 H
24/02/2018 0900 15.8 99.0 299 1.8 0.0 64.5 0.6 0.3 1 0 L 0 0 0 L 63 634 H
24/02/2018 0800 13.4 100.0 118 0.9 0.0 64.5 0.5 0.2 1 0 L 0 0 0 L 59 593 H
24/02/2018 0700 11.8 100.0 115 4.5 0.0 64.5 0.6 0.3 2 0 L 0 0 0 L 77 772 H
24/02/2018 0600 11.8 100.0 214 1.8 0.0 64.5 0.6 0.3 1 0 L 0 0 0 L 63 633 H
24/02/2018 0500 11.5 100.0 190 0.9 0.0 64.5 0.5 0.2 1 0 L 0 0 0 L 59 593 H
24/02/2018 0400 10.9 100.0 143 1.8 0.0 64.5 0.6 0.3 1 0 L 0 0 0 L 63 633 H
24/02/2018 0300 10.3 99.0 251 1.4 0.0 64.5 0.6 0.3 1 0 L 0 0 0 L 61 613 H
24/02/2018 0200 10.6 99.0 113 1.8 0.0 64.5 0.6 0.3 1 0 L 0 0 0 L 63 633 H
24/02/2018 0100 11.2 98.0 115 1.8 0.0 64.4 0.6 0.3 1 0 L 0 0 0 L 63 632 H
24/02/2018 0000 11.9 98.0 133 2.7 0.0 64.4 0.6 0.3 1 0 L 0 0 0 L 67 674 H
23/02/2018 2300 12.6 97.0 153 1.4 0.0 64.3 0.5 0.2 1 0 L 0 0 0 L 61 608 H
23/02/2018 2200 13.4 96.0 151 0.9 0.0 64.3 0.5 0.2 1 0 L 0 0 0 L 59 586 H
23/02/2018 2100 14.7 95.0 159 1.8 0.0 64.2 0.6 0.3 1 0 L 0 0 0 L 62 622 H
23/02/2018 2000 16.4 89.0 65 1.8 0.0 64.0 0.6 0.3 1 0 L 0 0 0 L 62 616 H
23/02/2018 1900 19.7 73.0 318 3.6 0.0 63.6 0.6 0.3 1 0 L 0 0 0 L 68 685 H
23/02/2018 1800 23.5 52.0 293 4.0 0.0 62.2 0.6 0.3 1 0 L 0 0 0 L 64 640 H
23/02/2018 1700 23.9 48.0 276 8.6 0.0 59.3 0.6 0.3 1 0 L 0 0 0 L 69 693 H
23/02/2018 1600 24.0 47.0 289 9.0 0.0 55.3 0.5 0.2 1 0 L 0 0 0 L 46 458 M
23/02/2018 1500 23.3 49.0 301 9.0 0.0 50.9 0.3 0.1 0 0 L 0 0 0 L 23 235 M
23/02/2018 1400 23.1 47.0 299 7.7 0.0 46.3 0.1 0.1 0 0 L 0 0 0 L 9 88 M
23/02/2018 1300 21.9 50.0 295 9.0 0.0 41.5 0.1 0.0 0 0 L 0 0 0 L 3 30 M
23/02/2018 1200 21.1 57.0 265 8.6 0.0 1.8 36.7 0.0 0.0 64.8 3.3 46.8 0.8 5.7 0.4 0.0 0 0 L 0 0 0 L 1 7 L
23/02/2018 1030 20.1 57.0 271 3.6 0.0 32.3 0.0 0.0 0 0 L 0 0 0 L 0 1 L